KPHD/PHD METAR and TAF weather

Enter ICAO airport designator
Station Type Date Time Source
KPHD METAR 2020/09/19 01:53 UTC NOAA

KPHD 190153Z AUTO 01003KT 10SM CLR 10/03 A3029 RMK AO2 SLP258 T01000033


Station Type Date Time Source
KPHD Decoded METAR 2020/09/19 01:53 UTC NOAA

NEW PHILADELPHIA CLEVER FLD, OH, United States (KPHD) 40-28N 81-25W 272M
Sep 18, 2020 - 09:53 PM EDT / 2020.09.19 0153 UTC
Wind: from the N (010 degrees) at 3 MPH (3 KT):0
Visibility: 10 mile(s):0
Sky conditions: clear
Temperature: 50.0 F (10.0 C)
Dew Point: 37.9 F (3.3 C)
Relative Humidity: 63%
Pressure (altimeter): 30.29 in. Hg (1025 hPa)
ob: KPHD 190153Z AUTO 01003KT 10SM CLR 10/03 A3029 RMK AO2 SLP258 T01000033
cycle: 2

Station Type Date Time Source
KPHD TAF UTC NOAA

Error!

Example: see airport list